Time;durP1;ratioP1;P1;durP2;ratioP2;P2;SDS_P1;SDS_P2;PMS_P1;PMS_P2;Temp;Humidity;BMP_temperature;BMP_pressure;BME280_temperature;BME280_humidity;BME280_pressure;Samples;Min_cycle;Max_cycle;Signal;HPM_P1;HPM_P2
2022/08/30 00:02:06;;;;;;;8.18;5.37;;;27.10;99.90;;;;;;1887226;75;21104;-86
2022/08/30 00:04:37;;;;;;;9.03;5.00;;;27.10;99.90;;;;;;1873049;75;21124;-84
2022/08/30 00:07:09;;;;;;;8.00;5.05;;;27.20;99.90;;;;;;1890095;75;21164;-86
2022/08/30 00:09:40;;;;;;;11.33;5.28;;;27.20;99.90;;;;;;1894525;75;21121;-70
2022/08/30 00:12:11;;;;;;;10.32;5.40;;;27.20;99.90;;;;;;1878527;75;21113;-70
2022/08/30 00:14:42;;;;;;;8.10;5.10;;;27.30;99.90;;;;;;1870432;77;21658;-70
2022/08/30 00:17:13;;;;;;;9.13;5.28;;;27.30;99.90;;;;;;1891633;75;21137;-70
2022/08/30 00:19:44;;;;;;;10.98;5.67;;;27.30;99.90;;;;;;1874382;75;21116;-70
2022/08/30 00:22:15;;;;;;;9.18;4.70;;;27.30;99.90;;;;;;1890394;75;21117;-70
2022/08/30 00:24:46;;;;;;;9.20;5.47;;;27.30;99.90;;;;;;1882579;75;21895;-72
2022/08/30 00:27:18;;;;;;;8.03;5.03;;;27.30;99.90;;;;;;1896775;75;21529;-70
2022/08/30 00:29:49;;;;;;;10.15;5.58;;;27.30;99.90;;;;;;1893078;74;21121;-70
2022/08/30 00:32:20;;;;;;;9.85;4.92;;;27.40;99.90;;;;;;1891051;75;21238;-71
2022/08/30 00:34:54;;;;;;;7.97;5.00;;;27.40;99.90;;;;;;1897378;75;21990;-72
2022/08/30 00:37:25;;;;;;;7.53;4.42;;;27.50;99.90;;;;;;1892398;75;21111;-72
2022/08/30 00:39:56;;;;;;;8.13;4.87;;;27.50;99.90;;;;;;1883659;75;21233;-70
2022/08/30 00:42:27;;;;;;;7.87;4.30;;;27.60;99.90;;;;;;1884502;75;21535;-70
2022/08/30 00:44:59;;;;;;;7.15;4.70;;;27.60;99.90;;;;;;1897805;75;21091;-70
2022/08/30 00:47:35;;;;;;;9.55;4.95;;;27.70;99.90;;;;;;1875764;75;21225;-71
2022/08/30 00:50:07;;;;;;;10.55;4.78;;;27.80;99.90;;;;;;1895774;75;21040;-70
2022/08/30 00:52:38;;;;;;;9.35;5.15;;;27.90;99.90;;;;;;1882436;75;21583;-70
2022/08/30 00:55:13;;;;;;;8.50;4.30;;;27.90;99.90;;;;;;1869888;75;21574;-70
2022/08/30 00:57:45;;;;;;;7.42;4.75;;;28.00;99.90;;;;;;1885729;75;21088;-70
2022/08/30 01:00:17;;;;;;;10.80;4.60;;;28.00;99.90;;;;;;1884690;75;21618;-70
2022/08/30 01:02:49;;;;;;;8.43;4.28;;;28.00;99.90;;;;;;1795869;77;21232;-71
2022/08/30 01:05:22;;;;;;;7.55;4.60;;;28.10;99.90;;;;;;1892020;75;21095;-70
2022/08/30 01:07:53;;;;;;;8.58;4.25;;;28.10;99.90;;;;;;1895867;75;21115;-70
2022/08/30 01:10:24;;;;;;;7.45;3.75;;;28.20;99.90;;;;;;1873252;75;21186;-71
2022/08/30 01:12:56;;;;;;;4.87;3.42;;;28.20;99.90;;;;;;1882137;75;21606;-70
2022/08/30 01:15:28;;;;;;;5.67;3.70;;;28.30;99.90;;;;;;1889995;75;21151;-70
2022/08/30 01:18:00;;;;;;;9.23;3.55;;;28.30;99.90;;;;;;1877135;75;21119;-70
2022/08/30 01:20:35;;;;;;;7.22;3.47;;;28.40;99.90;;;;;;1873868;75;21194;-71
2022/08/30 01:23:12;;;;;;;5.58;3.20;;;28.50;99.90;;;;;;1871149;75;21905;-70
2022/08/30 01:25:46;;;;;;;5.53;3.40;;;28.50;99.90;;;;;;1880886;75;21150;-71
2022/08/30 01:28:19;;;;;;;5.50;3.35;;;28.60;99.90;;;;;;1880467;75;21446;-70
2022/08/30 01:30:50;;;;;;;8.40;3.87;;;28.70;99.80;;;;;;1876742;75;21079;-70
2022/08/30 01:33:23;;;;;;;7.60;2.90;;;28.80;99.50;;;;;;1880124;75;21149;-71
2022/08/30 01:36:02;;;;;;;5.00;3.00;;;28.80;99.10;;;;;;1875085;76;21546;-70
2022/08/30 01:38:31;;;;;;;5.60;2.95;;;28.90;99.00;;;;;;1875363;75;21118;-71
2022/08/30 01:41:05;;;;;;;5.70;3.27;;;28.90;98.90;;;;;;1872759;75;21148;-70
2022/08/30 01:43:36;;;;;;;7.97;3.20;;;29.00;99.00;;;;;;1875675;75;21585;-70
2022/08/30 01:46:09;;;;;;;5.87;3.55;;;29.10;98.50;;;;;;1877843;76;21113;-70
2022/08/30 01:48:41;;;;;;;6.95;3.62;;;29.20;98.50;;;;;;1876837;76;21599;-71
2022/08/30 01:51:15;;;;;;;5.62;3.47;;;29.30;98.50;;;;;;1874662;75;21196;-71
2022/08/30 01:53:47;;;;;;;6.15;3.22;;;29.40;98.40;;;;;;1875027;76;21118;-71
2022/08/30 01:56:19;;;;;;;5.58;3.15;;;29.50;98.20;;;;;;1877015;76;21175;-70
2022/08/30 01:58:50;;;;;;;6.40;3.65;;;29.70;97.90;;;;;;1835539;76;21207;-71
2022/08/30 02:01:29;;;;;;;6.08;3.20;;;29.80;97.70;;;;;;1877759;76;21682;-72
2022/08/30 02:03:58;;;;;;;6.08;3.62;;;29.90;97.20;;;;;;1876777;76;21131;-69
2022/08/30 02:06:29;;;;;;;9.83;4.40;;;30.10;97.70;;;;;;1835414;78;21178;-70
2022/08/30 02:09:01;;;;;;;7.03;4.28;;;30.20;97.80;;;;;;1877489;76;21921;-70
2022/08/30 02:11:33;;;;;;;5.87;4.58;;;30.30;97.50;;;;;;1878275;76;21173;-71
2022/08/30 02:14:04;;;;;;;8.75;4.47;;;30.50;97.40;;;;;;1872936;76;21127;-70
2022/08/30 02:16:35;;;;;;;9.28;4.58;;;30.60;97.10;;;;;;1879549;76;21162;-72
2022/08/30 02:19:06;;;;;;;8.05;4.83;;;30.70;97.10;;;;;;1874672;76;21567;-72
2022/08/30 02:21:38;;;;;;;8.60;4.97;;;30.90;96.90;;;;;;1809805;78;21689;-70
2022/08/30 02:24:09;;;;;;;8.83;5.03;;;30.90;96.80;;;;;;1873068;76;21602;-71
2022/08/30 02:26:41;;;;;;;8.98;5.40;;;31.00;96.70;;;;;;1842638;78;21092;-69
2022/08/30 02:29:13;;;;;;;8.78;5.30;;;31.10;96.50;;;;;;1888221;76;21625;-70
2022/08/30 02:31:48;;;;;;;9.95;5.25;;;31.10;96.40;;;;;;1813928;79;21229;-72
2022/08/30 02:34:30;;;;;;;9.28;5.65;;;31.10;96.40;;;;;;1873965;75;21683;-71
2022/08/30 02:37:02;;;;;;;10.10;4.97;;;31.10;96.40;;;;;;1828818;76;21179;-70
2022/08/30 02:39:36;;;;;;;7.92;5.30;;;31.10;96.30;;;;;;1887697;75;21210;-71
2022/08/30 02:42:11;;;;;;;6.87;5.33;;;31.10;96.20;;;;;;1883408;75;21136;-71
2022/08/30 02:44:45;;;;;;;13.50;6.00;;;31.10;96.30;;;;;;1886704;75;21184;-71
2022/08/30 02:47:19;;;;;;;9.28;4.87;;;31.20;96.10;;;;;;1885161;75;21147;-70
2022/08/30 02:53:39;;;;;;;9.78;5.28;;;31.20;95.90;;;;;;1766439;80;22018;-70
2022/08/30 02:56:27;;;;;;;9.53;5.05;;;31.20;95.90;;;;;;1788119;78;21204;-71
2022/08/30 02:59:01;;;;;;;7.17;5.00;;;31.30;95.80;;;;;;1820020;75;21602;-71
2022/08/30 03:01:35;;;;;;;6.37;4.70;;;31.30;95.30;;;;;;1888907;75;21124;-70
2022/08/30 03:04:06;;;;;;;8.23;5.40;;;31.30;95.60;;;;;;1879899;75;21092;-71
2022/08/30 03:06:37;;;;;;;7.78;4.92;;;31.40;95.20;;;;;;1886733;75;21152;-70
2022/08/30 03:09:08;;;;;;;8.83;4.58;;;31.40;95.20;;;;;;1884154;75;21113;-71
2022/08/30 03:11:40;;;;;;;6.10;4.28;;;31.50;95.10;;;;;;1891359;75;21175;-70
2022/08/30 03:14:11;;;;;;;8.60;4.75;;;31.50;95.10;;;;;;1894080;75;21143;-71
2022/08/30 03:16:42;;;;;;;5.70;4.33;;;31.60;95.00;;;;;;1884218;75;21765;-71
2022/08/30 03:19:13;;;;;;;9.88;4.47;;;31.80;94.90;;;;;;1879217;75;21108;-70
2022/08/30 03:21:44;;;;;;;8.85;4.40;;;31.70;94.60;;;;;;1897266;75;21120;-71
2022/08/30 03:24:15;;;;;;;7.40;4.47;;;31.80;94.40;;;;;;1880728;75;21137;-71
2022/08/30 03:26:46;;;;;;;7.03;4.40;;;31.80;94.60;;;;;;1893153;74;21691;-71
2022/08/30 03:29:17;;;;;;;7.30;4.10;;;31.80;94.70;;;;;;1880153;75;21141;-71
2022/08/30 03:31:47;;;;;;;7.35;3.83;;;32.00;94.50;;;;;;1893234;74;21156;-71
2022/08/30 03:34:20;;;;;;;6.92;4.35;;;32.10;94.60;;;;;;1881996;75;21265;-71
2022/08/30 03:36:54;;;;;;;8.58;4.60;;;32.30;94.60;;;;;;1895727;74;21167;-71
2022/08/30 03:39:25;;;;;;;8.08;4.15;;;32.30;93.40;;;;;;1905775;74;21694;-72
2022/08/30 03:41:56;;;;;;;5.62;4.00;;;32.20;94.00;;;;;;1902790;74;21131;-71
2022/08/30 03:44:27;;;;;;;6.22;4.20;;;32.00;93.90;;;;;;1900076;74;21628;-71
2022/08/30 03:46:58;;;;;;;6.35;4.42;;;31.90;94.10;;;;;;1917549;74;21167;-70
2022/08/30 03:49:30;;;;;;;6.15;4.35;;;31.60;94.30;;;;;;1906735;74;21649;-71
2022/08/30 03:52:01;;;;;;;7.62;5.03;;;31.40;94.60;;;;;;1923365;74;21124;-71
2022/08/30 03:54:32;;;;;;;8.90;4.78;;;31.30;95.10;;;;;;1898800;74;21112;-71
2022/08/30 03:57:04;;;;;;;5.05;4.05;;;31.20;95.20;;;;;;1900963;74;21582;-71
2022/08/30 03:59:35;;;;;;;7.22;4.90;;;31.00;95.40;;;;;;1900187;74;21080;-71
2022/08/30 04:02:06;;;;;;;9.53;5.10;;;30.90;95.70;;;;;;1912823;74;21155;-71
2022/08/30 04:04:37;;;;;;;7.92;5.65;;;30.90;95.90;;;;;;1899075;74;21630;-70
2022/08/30 04:07:08;;;;;;;7.60;6.10;;;30.90;96.00;;;;;;1922495;74;21125;-71
2022/08/30 04:09:39;;;;;;;10.13;6.65;;;30.80;96.40;;;;;;1910706;74;21553;-70
2022/08/30 04:12:10;;;;;;;7.87;6.28;;;30.80;96.80;;;;;;1900870;74;21171;-71
2022/08/30 04:14:42;;;;;;;12.30;6.72;;;30.70;96.60;;;;;;1913379;74;21203;-71
2022/08/30 04:17:13;;;;;;;11.60;7.12;;;30.70;96.70;;;;;;1909779;74;21067;-71
2022/08/30 04:19:44;;;;;;;15.05;7.58;;;30.60;96.60;;;;;;1911064;74;21104;-70
2022/08/30 04:22:38;;;;;;;9.13;6.83;;;30.60;96.70;;;;;;1928880;74;21135;-72
2022/08/30 04:25:09;;;;;;;9.25;7.03;;;30.60;96.60;;;;;;1911425;74;21076;-71
2022/08/30 04:27:41;;;;;;;12.20;6.65;;;30.50;96.70;;;;;;1910600;74;21654;-70
2022/08/30 04:30:14;;;;;;;12.23;7.33;;;30.50;96.90;;;;;;1914118;74;21734;-70
2022/08/30 04:32:45;;;;;;;13.60;7.05;;;30.50;96.80;;;;;;1911253;74;21073;-71
2022/08/30 04:35:16;;;;;;;10.60;6.62;;;30.40;96.80;;;;;;1906437;74;21205;-70
2022/08/30 04:37:47;;;;;;;9.03;6.10;;;30.40;97.10;;;;;;1899391;74;21648;-72
2022/08/30 04:40:19;;;;;;;11.45;7.05;;;30.40;97.10;;;;;;1886872;75;21665;-73
2022/08/30 04:42:53;;;;;;;10.32;6.35;;;30.50;96.90;;;;;;1902166;75;21556;-71
2022/08/30 04:45:22;;;;;;;12.05;6.58;;;30.50;97.10;;;;;;1886766;75;21469;-70
2022/08/30 04:47:53;;;;;;;11.80;6.58;;;30.50;97.00;;;;;;1871419;75;21170;-70
2022/08/30 04:50:26;;;;;;;9.13;6.03;;;30.60;96.90;;;;;;1877884;75;21081;-70
2022/08/30 04:52:56;;;;;;;8.83;6.33;;;30.60;96.70;;;;;;1893911;75;21571;-70
2022/08/30 04:55:27;;;;;;;7.80;5.80;;;30.60;96.60;;;;;;1888308;75;21203;-70
2022/08/30 04:57:59;;;;;;;8.78;5.70;;;30.70;96.50;;;;;;1895542;74;21093;-71
2022/08/30 05:00:30;;;;;;;8.93;6.47;;;30.90;96.20;;;;;;1881965;75;21182;-71
2022/08/30 05:03:02;;;;;;;9.33;5.97;;;30.90;96.30;;;;;;1880410;75;21117;-70
2022/08/30 05:05:39;;;;;;;13.75;6.33;;;31.00;96.30;;;;;;1884571;75;21599;-71
2022/08/30 05:08:06;;;;;;;8.58;5.60;;;31.10;96.50;;;;;;1878989;75;21136;-72
2022/08/30 05:10:39;;;;;;;7.05;4.67;;;31.20;96.10;;;;;;1893465;75;21131;-71
2022/08/30 05:13:11;;;;;;;7.17;5.00;;;31.40;94.80;;;;;;1889217;75;21116;-71
2022/08/30 05:15:42;;;;;;;5.30;4.00;;;31.60;94.90;;;;;;1887292;75;21159;-71
2022/08/30 05:18:14;;;;;;;7.12;4.12;;;31.80;94.00;;;;;;1891467;75;21198;-72
2022/08/30 05:20:45;;;;;;;5.75;3.67;;;32.00;93.70;;;;;;1873274;75;21630;-70
2022/08/30 05:23:16;;;;;;;4.85;3.95;;;32.10;92.70;;;;;;1875622;75;21144;-70
2022/08/30 05:25:47;;;;;;;7.85;3.95;;;32.20;92.20;;;;;;1882047;75;21132;-72
2022/08/30 05:28:18;;;;;;;6.37;3.92;;;32.20;91.90;;;;;;1888658;75;21175;-71
2022/08/30 05:30:50;;;;;;;5.65;4.05;;;32.10;92.10;;;;;;1877953;75;21141;-71
2022/08/30 05:33:22;;;;;;;9.15;7.37;;;32.00;92.40;;;;;;1899194;75;21592;-72
2022/08/30 05:35:52;;;;;;;7.87;5.72;;;32.00;93.00;;;;;;1901734;75;21123;-71
2022/08/30 05:38:24;;;;;;;6.08;4.20;;;32.00;92.90;;;;;;1913448;74;21631;-71
2022/08/30 05:40:55;;;;;;;13.18;10.55;;;32.00;92.30;;;;;;1914762;74;21088;-71
2022/08/30 05:43:26;;;;;;;10.08;6.20;;;31.90;92.50;;;;;;1913752;74;21552;-72
2022/08/30 05:46:01;;;;;;;8.70;5.50;;;31.80;92.90;;;;;;1919749;74;21543;-72
2022/08/30 05:48:33;;;;;;;10.98;7.62;;;31.70;93.10;;;;;;1907167;74;21135;-72
2022/08/30 05:51:06;;;;;;;7.85;6.28;;;31.60;93.90;;;;;;1903797;74;21513;-71
2022/08/30 05:53:37;;;;;;;15.63;11.35;;;31.50;94.80;;;;;;1906271;74;21143;-71
2022/08/30 05:56:11;;;;;;;11.50;8.45;;;31.40;95.40;;;;;;1911194;74;21142;-71
2022/08/30 05:58:42;;;;;;;14.40;8.78;;;31.30;95.50;;;;;;1923077;74;21741;-71
2022/08/30 06:01:16;;;;;;;12.80;8.08;;;31.20;96.50;;;;;;1926966;74;21107;-71
2022/08/30 06:03:47;;;;;;;11.73;9.35;;;31.10;96.70;;;;;;1900313;74;21146;-71
2022/08/30 06:06:18;;;;;;;13.43;10.20;;;31.00;96.90;;;;;;1912833;74;21748;-71
2022/08/30 06:08:50;;;;;;;24.50;14.90;;;30.80;96.90;;;;;;1905344;74;21056;-71
2022/08/30 06:11:23;;;;;;;13.40;8.93;;;30.70;97.20;;;;;;1924286;74;21571;-71
2022/08/30 06:13:55;;;;;;;13.78;9.73;;;30.70;97.80;;;;;;1910602;74;21189;-71
2022/08/30 06:16:28;;;;;;;9.40;7.45;;;30.60;98.10;;;;;;1911300;74;21120;-72
2022/08/30 06:19:00;;;;;;;13.38;9.68;;;30.60;97.80;;;;;;1905169;74;21575;-71
2022/08/30 06:21:33;;;;;;;7.85;7.03;;;30.50;98.10;;;;;;1914285;74;21209;-70
2022/08/30 06:24:07;;;;;;;8.55;5.25;;;30.50;98.10;;;;;;1906885;74;21733;-71
2022/08/30 06:26:41;;;;;;;8.60;5.10;;;30.50;98.10;;;;;;1909985;74;21654;-71
2022/08/30 06:29:15;;;;;;;5.62;4.58;;;30.50;97.80;;;;;;1906735;74;21689;-71
2022/08/30 06:31:46;;;;;;;7.62;4.50;;;30.50;97.70;;;;;;1910794;74;21213;-71
2022/08/30 06:34:18;;;;;;;6.10;4.83;;;30.50;97.30;;;;;;1904074;74;21151;-71
2022/08/30 06:36:49;;;;;;;6.53;4.83;;;30.60;97.10;;;;;;1910287;74;21061;-72
2022/08/30 06:39:21;;;;;;;6.08;4.65;;;30.60;97.50;;;;;;1906426;74;21123;-71
2022/08/30 06:41:52;;;;;;;6.65;4.40;;;30.70;97.60;;;;;;1847690;77;21087;-70
2022/08/30 06:44:23;;;;;;;7.28;4.28;;;30.70;96.90;;;;;;1854198;76;21190;-71
2022/08/30 06:46:55;;;;;;;6.42;4.20;;;30.70;96.90;;;;;;1855269;76;21629;-71
2022/08/30 06:49:26;;;;;;;5.58;4.00;;;30.90;96.10;;;;;;1903088;74;21065;-71
2022/08/30 06:51:57;;;;;;;6.97;3.95;;;30.90;95.20;;;;;;1911687;74;21189;-71
2022/08/30 06:54:29;;;;;;;5.25;3.72;;;31.00;95.20;;;;;;1903146;74;21201;-71
2022/08/30 06:57:00;;;;;;;6.20;3.70;;;31.10;94.50;;;;;;1913813;74;21135;-71
2022/08/30 06:59:31;;;;;;;9.13;3.95;;;31.20;94.70;;;;;;1903976;74;21553;-72
2022/08/30 07:02:02;;;;;;;7.20;4.35;;;31.30;94.40;;;;;;1916019;74;21167;-72
2022/08/30 07:04:33;;;;;;;4.70;3.80;;;31.30;94.60;;;;;;1905625;74;21100;-72
2022/08/30 07:07:04;;;;;;;8.33;3.12;;;31.40;94.70;;;;;;1908654;74;21088;-70
2022/08/30 07:09:41;;;;;;;4.53;3.22;;;31.40;94.70;;;;;;1904220;74;21597;-71
2022/08/30 07:12:10;;;;;;;5.97;3.45;;;31.40;94.50;;;;;;1913573;74;21197;-71
2022/08/30 07:14:41;;;;;;;7.55;3.95;;;31.40;94.90;;;;;;1906336;74;21163;-71
2022/08/30 07:19:48;;;;;;;6.95;3.75;;;31.40;95.20;;;;;;1895470;74;21201;-74
2022/08/30 07:22:18;;;;;;;6.10;3.90;;;31.30;95.30;;;;;;1908168;74;21228;-74
2022/08/30 07:24:50;;;;;;;10.88;4.65;;;31.30;95.40;;;;;;1905406;74;21505;-72
2022/08/30 07:27:20;;;;;;;6.75;4.30;;;31.20;95.60;;;;;;1913983;74;21681;-71
2022/08/30 07:29:51;;;;;;;5.45;3.80;;;31.20;95.30;;;;;;1904088;74;21104;-71
2022/08/30 07:32:22;;;;;;;5.00;3.52;;;31.30;95.20;;;;;;1918698;74;21037;-71
2022/08/30 07:34:53;;;;;;;5.37;3.37;;;31.30;95.10;;;;;;1905100;74;21057;-71
2022/08/30 07:37:25;;;;;;;4.83;3.62;;;31.40;95.10;;;;;;1913996;74;21710;-71
2022/08/30 07:39:55;;;;;;;6.50;3.90;;;31.30;95.10;;;;;;1846289;77;21177;-72
2022/08/30 07:42:26;;;;;;;5.35;3.62;;;31.30;95.00;;;;;;1902671;74;21161;-71
2022/08/30 07:44:57;;;;;;;6.50;3.80;;;31.30;94.80;;;;;;1904498;74;21108;-71
2022/08/30 07:47:29;;;;;;;7.78;3.80;;;31.20;94.80;;;;;;1894887;74;21543;-71
2022/08/30 07:50:01;;;;;;;55.43;50.10;;;31.20;94.70;;;;;;1903754;74;21632;-70
2022/08/30 07:52:35;;;;;;;11.22;9.05;;;31.20;94.70;;;;;;1900154;74;21143;-72
2022/08/30 07:55:12;;;;;;;5.10;3.47;;;31.30;94.70;;;;;;1899052;74;21125;-71
2022/08/30 07:57:43;;;;;;;5.72;3.77;;;31.30;94.50;;;;;;1903078;74;21630;-70
2022/08/30 08:00:15;;;;;;;7.37;3.70;;;31.30;94.50;;;;;;1906362;74;21704;-72
2022/08/30 08:02:46;;;;;;;8.30;3.55;;;31.30;94.40;;;;;;1902621;74;21612;-71
2022/08/30 08:05:17;;;;;;;6.03;3.08;;;31.40;94.10;;;;;;1897404;74;21697;-72
2022/08/30 08:07:49;;;;;;;5.90;3.60;;;31.40;94.00;;;;;;1898667;74;21195;-70
2022/08/30 08:10:20;;;;;;;6.40;3.00;;;31.50;94.00;;;;;;1901095;74;21121;-71
2022/08/30 08:12:51;;;;;;;4.65;3.10;;;31.60;93.50;;;;;;1906731;74;21124;-71
2022/08/30 08:15:25;;;;;;;5.00;3.67;;;31.70;93.60;;;;;;1904968;74;21203;-71
2022/08/30 08:17:56;;;;;;;4.92;3.35;;;31.70;93.50;;;;;;1902757;74;21088;-72
2022/08/30 08:20:27;;;;;;;5.45;3.45;;;31.80;93.60;;;;;;1908913;74;21232;-72
2022/08/30 08:22:58;;;;;;;4.10;3.10;;;31.80;93.60;;;;;;1903492;74;21107;-72
2022/08/30 08:25:30;;;;;;;5.78;3.83;;;31.80;93.80;;;;;;1902274;74;21135;-71
2022/08/30 08:28:01;;;;;;;7.58;4.28;;;31.80;94.00;;;;;;1908390;74;21182;-71
2022/08/30 08:30:34;;;;;;;5.08;2.90;;;31.80;93.60;;;;;;1909318;74;21178;-71
2022/08/30 08:33:06;;;;;;;3.00;2.17;;;31.60;93.60;;;;;;1901654;74;21615;-72
2022/08/30 08:35:37;;;;;;;4.12;2.67;;;31.60;93.70;;;;;;1907750;74;21170;-70
2022/08/30 08:38:08;;;;;;;5.67;2.98;;;31.50;93.60;;;;;;1907662;74;21143;-72
2022/08/30 08:40:41;;;;;;;5.95;3.30;;;31.40;94.00;;;;;;1892519;75;21157;-71
2022/08/30 08:43:14;;;;;;;4.30;2.40;;;31.40;94.30;;;;;;1886679;75;21160;-71
2022/08/30 08:45:48;;;;;;;5.40;2.90;;;31.40;94.50;;;;;;1884202;75;21482;-71
2022/08/30 08:48:19;;;;;;;5.55;3.10;;;31.30;94.50;;;;;;1884193;75;21057;-71
2022/08/30 08:53:34;;;;;;;5.08;3.20;;;31.30;94.30;;;;;;1887770;74;21125;-71
2022/08/30 08:55:59;;;;;;;4.85;2.67;;;31.30;94.00;;;;;;1885738;75;21081;-71
2022/08/30 08:58:32;;;;;;;4.85;2.60;;;31.20;93.60;;;;;;1888065;75;21132;-71
2022/08/30 09:01:03;;;;;;;5.37;2.25;;;31.20;93.10;;;;;;1891402;75;21089;-71
2022/08/30 09:03:34;;;;;;;3.75;2.22;;;31.30;93.10;;;;;;1884252;75;21152;-71
2022/08/30 09:06:07;;;;;;;6.08;2.40;;;31.20;92.70;;;;;;1886612;75;21194;-71
2022/08/30 09:08:38;;;;;;;6.00;4.03;;;31.20;92.60;;;;;;1883872;75;21198;-71
2022/08/30 09:11:15;;;;;;;4.67;2.67;;;31.20;93.00;;;;;;1884907;75;21117;-72
2022/08/30 09:13:43;;;;;;;3.45;2.37;;;31.20;93.30;;;;;;1886209;75;21077;-71
2022/08/30 09:16:17;;;;;;;5.72;2.50;;;31.20;93.50;;;;;;1890841;75;21108;-71
2022/08/30 09:18:49;;;;;;;5.75;2.75;;;31.10;93.80;;;;;;1881231;75;21111;-72
2022/08/30 09:21:24;;;;;;;4.55;3.00;;;31.10;93.90;;;;;;1884696;74;21168;-71
2022/08/30 09:23:57;;;;;;;5.25;2.70;;;31.00;93.80;;;;;;1882811;75;21184;-70
2022/08/30 09:26:31;;;;;;;5.65;2.52;;;31.00;94.00;;;;;;1881678;75;21684;-72
2022/08/30 09:29:04;;;;;;;5.00;2.70;;;31.00;94.00;;;;;;1888673;75;21203;-72
2022/08/30 09:31:39;;;;;;;3.87;2.52;;;31.00;94.10;;;;;;1887205;75;21553;-71
2022/08/30 09:34:12;;;;;;;4.40;2.58;;;31.00;94.40;;;;;;1887469;74;21196;-71
2022/08/30 09:36:50;;;;;;;4.65;2.87;;;31.00;94.50;;;;;;1887776;75;21081;-73
2022/08/30 09:39:22;;;;;;;6.47;2.80;;;31.00;94.50;;;;;;1885549;74;21646;-72
2022/08/30 09:41:58;;;;;;;4.25;2.77;;;31.00;94.40;;;;;;1886240;74;21413;-72
2022/08/30 09:44:32;;;;;;;5.00;3.00;;;31.00;94.50;;;;;;1885399;74;21631;-72
2022/08/30 09:47:07;;;;;;;5.67;2.50;;;30.90;94.10;;;;;;1888708;74;21125;-72
2022/08/30 09:49:37;;;;;;;6.58;2.65;;;31.00;94.70;;;;;;1879677;75;21177;-73
2022/08/30 09:52:10;;;;;;;4.37;2.75;;;30.90;94.80;;;;;;1882874;75;21671;-73
2022/08/30 09:54:43;;;;;;;6.10;2.95;;;30.90;95.00;;;;;;1823931;78;22332;-74
2022/08/30 09:57:15;;;;;;;5.15;3.33;;;30.90;95.20;;;;;;1892705;75;21144;-72
2022/08/30 09:59:48;;;;;;;5.42;3.15;;;30.90;95.40;;;;;;1887052;75;21156;-72
2022/08/30 10:02:22;;;;;;;5.03;3.30;;;30.80;95.50;;;;;;1884041;75;21162;-72
2022/08/30 10:04:56;;;;;;;7.30;3.12;;;30.80;95.50;;;;;;1882860;75;21124;-73
2022/08/30 10:07:30;;;;;;;3.60;2.55;;;30.80;95.60;;;;;;1885326;75;21093;-73
2022/08/30 10:10:03;;;;;;;5.95;2.87;;;30.80;95.50;;;;;;1883078;75;21593;-72
2022/08/30 10:12:36;;;;;;;6.55;3.58;;;30.80;95.60;;;;;;1883273;75;21085;-73
2022/08/30 10:15:08;;;;;;;4.60;2.80;;;30.70;95.70;;;;;;1885852;75;21824;-73
2022/08/30 10:17:43;;;;;;;10.05;3.67;;;30.70;95.80;;;;;;1889216;75;21575;-72
2022/08/30 10:20:15;;;;;;;4.72;3.40;;;30.60;96.10;;;;;;1884488;75;21187;-72
2022/08/30 10:22:48;;;;;;;6.15;3.37;;;30.60;96.20;;;;;;1894559;74;21644;-69
2022/08/30 10:25:21;;;;;;;4.30;3.05;;;30.60;96.20;;;;;;1877642;75;21132;-71
2022/08/30 10:27:55;;;;;;;5.47;3.20;;;30.70;96.40;;;;;;1884176;75;21224;-72
2022/08/30 10:30:27;;;;;;;3.60;3.00;;;30.70;96.40;;;;;;1876792;75;21524;-72
2022/08/30 10:33:03;;;;;;;4.65;3.12;;;30.60;96.50;;;;;;1884012;75;21581;-74
2022/08/30 10:35:39;;;;;;;7.95;3.35;;;30.70;96.50;;;;;;1880713;74;21143;-73
2022/08/30 10:38:13;;;;;;;6.22;3.45;;;30.60;96.30;;;;;;1884372;75;21683;-72
2022/08/30 10:43:22;;;;;;;7.35;3.90;;;30.60;96.40;;;;;;1888613;75;21202;-74
2022/08/30 10:45:59;;;;;;;8.18;4.15;;;30.60;96.40;;;;;;1878667;74;21152;-72
2022/08/30 10:48:33;;;;;;;6.03;3.47;;;30.60;96.50;;;;;;1891451;75;21116;-73
2022/08/30 10:51:06;;;;;;;6.35;3.95;;;30.60;96.40;;;;;;1890550;75;21122;-73
2022/08/30 10:53:40;;;;;;;6.45;3.55;;;30.60;96.30;;;;;;1884701;75;21136;-73
2022/08/30 10:56:15;;;;;;;5.67;3.90;;;30.60;96.30;;;;;;1883385;75;21141;-72
2022/08/30 10:58:46;;;;;;;5.65;3.58;;;30.60;96.40;;;;;;1884726;75;21045;-71
2022/08/30 11:01:20;;;;;;;8.03;4.42;;;30.50;96.30;;;;;;1882086;75;21254;-72
2022/08/30 11:03:55;;;;;;;6.28;4.37;;;30.50;96.40;;;;;;1876380;74;21160;-72
2022/08/30 11:06:28;;;;;;;7.00;4.30;;;30.50;96.60;;;;;;1881570;74;21638;-73
2022/08/30 11:09:01;;;;;;;6.75;4.47;;;30.40;96.60;;;;;;1879013;74;21140;-73
2022/08/30 11:11:35;;;;;;;9.93;4.80;;;30.40;96.70;;;;;;1884045;75;21525;-73
2022/08/30 11:14:12;;;;;;;10.23;4.53;;;30.40;96.90;;;;;;1882328;75;21599;-72
2022/08/30 11:16:46;;;;;;;8.50;4.25;;;30.40;97.40;;;;;;1883726;75;21184;-72
2022/08/30 11:19:19;;;;;;;8.60;4.25;;;30.40;97.10;;;;;;1888486;75;21621;-73
2022/08/30 11:22:02;;;;;;;8.58;4.33;;;30.30;97.20;;;;;;1864322;74;21173;-73
2022/08/30 11:24:36;;;;;;;10.13;4.28;;;30.30;97.40;;;;;;1872733;75;21144;-73
2022/08/30 11:27:10;;;;;;;9.60;4.60;;;30.30;97.50;;;;;;1887737;75;21143;-72
2022/08/30 11:29:42;;;;;;;6.87;4.33;;;30.30;97.60;;;;;;1878744;75;21650;-72
2022/08/30 11:32:16;;;;;;;10.05;4.17;;;30.30;97.60;;;;;;1883705;75;21169;-73
2022/08/30 11:34:47;;;;;;;7.92;4.10;;;30.30;97.60;;;;;;1875647;74;21257;-73
2022/08/30 11:37:20;;;;;;;6.03;3.83;;;30.30;97.60;;;;;;1873923;75;21085;-72
2022/08/30 11:39:55;;;;;;;7.15;4.05;;;30.30;97.60;;;;;;1881667;75;21108;-72
2022/08/30 11:42:33;;;;;;;6.75;4.40;;;30.20;97.60;;;;;;1881468;75;21155;-72
2022/08/30 11:45:05;;;;;;;;;;;30.30;97.70;;;;;;1895363;75;21113;-73
2022/08/30 11:47:42;;;;;;;8.45;3.92;;;30.20;97.70;;;;;;1885842;74;20210;-71
2022/08/30 11:50:15;;;;;;;6.12;4.40;;;30.20;97.80;;;;;;1893192;74;21132;-74
2022/08/30 11:52:52;;;;;;;7.95;4.33;;;30.20;98.00;;;;;;1878615;75;21108;-73
2022/08/30 11:55:24;;;;;;;10.15;5.15;;;30.20;97.90;;;;;;1882056;75;21594;-72
2022/08/30 11:57:58;;;;;;;10.05;4.67;;;30.20;97.90;;;;;;1874244;74;21488;-73
2022/08/30 12:00:32;;;;;;;6.58;4.83;;;30.20;98.00;;;;;;1892347;75;21117;-72
2022/08/30 12:03:09;;;;;;;11.43;5.20;;;30.10;98.20;;;;;;1882847;74;21152;-73
2022/08/30 12:05:41;;;;;;;9.93;5.60;;;30.10;98.40;;;;;;1883536;75;21118;-72
2022/08/30 12:08:14;;;;;;;9.05;6.58;;;30.10;98.40;;;;;;1872010;75;21652;-72
2022/08/30 12:10:48;;;;;;;8.38;4.87;;;30.10;98.60;;;;;;1874501;75;21621;-73
2022/08/30 12:13:22;;;;;;;9.43;5.17;;;30.10;98.60;;;;;;1873574;75;21134;-73
2022/08/30 12:15:55;;;;;;;8.93;5.90;;;30.00;98.70;;;;;;1875146;74;21137;-72
2022/08/30 12:18:33;;;;;;;9.53;5.35;;;30.00;98.90;;;;;;1876048;75;21107;-72
2022/08/30 12:21:06;;;;;;;12.50;5.95;;;30.00;99.00;;;;;;1876060;75;21112;-74
2022/08/30 12:23:43;;;;;;;11.12;5.78;;;30.00;99.00;;;;;;1878698;75;21111;-73
2022/08/30 12:26:15;;;;;;;11.70;5.87;;;29.90;99.10;;;;;;1872375;75;21637;-73
2022/08/30 12:28:50;;;;;;;10.43;5.25;;;30.00;99.20;;;;;;1878212;75;21184;-72
2022/08/30 12:31:24;;;;;;;9.23;6.50;;;29.90;99.20;;;;;;1880089;75;21569;-72
2022/08/30 12:34:05;;;;;;;12.58;7.15;;;29.90;99.30;;;;;;1882472;75;21165;-72
2022/08/30 12:36:38;;;;;;;7.90;5.75;;;29.90;99.40;;;;;;1887887;75;21662;-72
2022/08/30 12:39:12;;;;;;;10.80;6.95;;;29.90;99.50;;;;;;1890175;74;21093;-72
2022/08/30 12:41:44;;;;;;;10.18;6.95;;;29.80;99.60;;;;;;1882850;74;21093;-73
2022/08/30 12:44:17;;;;;;;10.45;6.87;;;29.80;99.60;;;;;;1898017;75;21074;-73
2022/08/30 12:46:53;;;;;;;11.30;6.53;;;29.80;99.70;;;;;;1901385;74;21495;-72
2022/08/30 12:49:28;;;;;;;9.73;6.85;;;29.80;99.60;;;;;;1882323;74;21103;-70
2022/08/30 12:52:07;;;;;;;14.70;7.35;;;29.80;99.60;;;;;;1853156;77;21210;-72
2022/08/30 12:54:42;;;;;;;11.03;6.28;;;29.80;99.60;;;;;;1887293;75;21159;-73
2022/08/30 12:57:13;;;;;;;10.03;6.40;;;29.90;99.70;;;;;;1884388;75;21148;-72
2022/08/30 12:59:49;;;;;;;9.25;6.08;;;29.90;99.90;;;;;;1880834;75;21600;-74
2022/08/30 13:02:24;;;;;;;9.00;6.97;;;29.90;99.70;;;;;;1892455;74;21219;-72
2022/08/30 13:05:00;;;;;;;10.08;6.72;;;29.90;99.60;;;;;;1880309;75;21136;-72
2022/08/30 13:07:35;;;;;;;12.35;6.75;;;29.90;99.70;;;;;;1901164;75;21113;-73
2022/08/30 13:10:09;;;;;;;11.57;5.92;;;29.90;99.70;;;;;;1882837;75;21893;-72
2022/08/30 13:12:49;;;;;;;9.85;6.78;;;29.90;99.70;;;;;;1874707;75;21098;-74
2022/08/30 13:15:25;;;;;;;17.70;6.70;;;29.90;99.80;;;;;;1865106;75;21194;-74
2022/08/30 13:18:09;;;;;;;15.30;6.60;;;29.90;99.80;;;;;;1870599;75;21274;-72
2022/08/30 13:20:47;;;;;;;11.63;6.70;;;29.90;99.80;;;;;;1873211;75;21116;-74
2022/08/30 13:23:22;;;;;;;8.03;6.15;;;29.90;99.80;;;;;;1871411;76;21214;-73
2022/08/30 13:25:56;;;;;;;9.48;7.00;;;29.90;99.90;;;;;;1871884;75;21089;-75